Time;durP1;ratioP1;P1;durP2;ratioP2;P2;SDS_P1;SDS_P2;PMS_P1;PMS_P2;Temp;Humidity;BMP_temperature;BMP_pressure;BME280_temperature;BME280_humidity;BME280_pressure;Samples;Min_cycle;Max_cycle;Signal;HPM_P1;HPM_P2
2023/05/04 00:02:24;;;;;;;4.97;4.57;;;12.70;75.20;;;;;;5079144;28;20211;-89
2023/05/04 00:04:53;;;;;;;5.70;4.43;;;12.50;76.40;;;;;;5078850;28;20594;-90
2023/05/04 00:07:19;;;;;;;4.73;4.27;;;12.40;76.80;;;;;;5063579;28;20266;-89
2023/05/04 00:09:44;;;;;;;5.83;4.57;;;12.40;77.20;;;;;;5061033;28;20234;-89
2023/05/04 00:12:10;;;;;;;7.77;4.63;;;12.40;77.30;;;;;;5077304;28;20624;-89
2023/05/04 00:14:36;;;;;;;4.73;4.30;;;12.30;77.20;;;;;;5076518;28;20229;-89
2023/05/04 00:17:05;;;;;;;4.93;4.40;;;12.30;76.90;;;;;;5054680;28;20336;-90
2023/05/04 00:19:32;;;;;;;5.27;4.57;;;12.40;76.20;;;;;;5056452;28;20179;-90
2023/05/04 00:21:58;;;;;;;4.40;4.07;;;12.40;76.20;;;;;;5074030;28;20213;-90
2023/05/04 00:24:24;;;;;;;4.80;4.40;;;12.50;75.70;;;;;;5076996;28;20260;-90
2023/05/04 00:26:50;;;;;;;6.40;4.87;;;12.50;75.10;;;;;;5077116;28;20210;-88
2023/05/04 00:29:16;;;;;;;4.77;4.47;;;12.50;75.30;;;;;;5077912;28;20207;-89
2023/05/04 00:31:42;;;;;;;5.10;4.70;;;12.50;75.70;;;;;;5077842;28;20274;-89
2023/05/04 00:34:07;;;;;;;5.03;3.97;;;12.50;75.30;;;;;;5077225;28;20195;-90
2023/05/04 00:36:33;;;;;;;5.03;4.73;;;12.50;75.00;;;;;;5076606;28;20586;-89
2023/05/04 00:38:59;;;;;;;4.60;4.20;;;12.40;75.10;;;;;;5059704;28;20190;-89
2023/05/04 00:41:25;;;;;;;5.13;4.50;;;12.30;75.60;;;;;;5075860;28;20286;-88
2023/05/04 00:43:51;;;;;;;4.87;4.47;;;12.20;76.10;;;;;;5075135;28;20180;-90
2023/05/04 00:46:17;;;;;;;4.77;4.37;;;12.30;76.30;;;;;;5056171;28;20197;-90
2023/05/04 00:48:47;;;;;;;4.87;4.47;;;12.30;76.30;;;;;;5071194;28;20179;-90
2023/05/04 00:51:15;;;;;;;5.47;4.33;;;12.30;76.20;;;;;;5077160;28;20210;-89
2023/05/04 00:53:41;;;;;;;5.17;4.67;;;12.30;75.90;;;;;;5076928;28;20188;-89
2023/05/04 00:56:07;;;;;;;4.77;4.37;;;12.20;76.70;;;;;;5077032;28;20232;-89
2023/05/04 00:58:34;;;;;;;4.93;4.50;;;12.10;77.50;;;;;;5076469;28;20225;-90
2023/05/04 01:01:01;;;;;;;4.63;4.23;;;12.10;77.50;;;;;;5076310;28;20199;-90
2023/05/04 01:03:27;;;;;;;4.93;4.30;;;12.00;77.80;;;;;;5073082;28;20216;-90
2023/05/04 01:06:00;;;;;;;4.93;4.47;;;11.90;78.90;;;;;;5060274;28;20180;-89
2023/05/04 01:08:41;;;;;;;5.23;4.50;;;11.80;79.00;;;;;;5055226;28;20190;-88
2023/05/04 01:11:10;;;;;;;4.63;4.23;;;11.80;78.80;;;;;;5050907;28;20198;-90
2023/05/04 01:13:37;;;;;;;4.97;4.53;;;11.80;79.30;;;;;;5036742;28;20368;-89
2023/05/04 01:16:04;;;;;;;4.97;4.60;;;11.80;79.50;;;;;;5056604;28;20199;-90
2023/05/04 01:18:30;;;;;;;5.40;4.90;;;11.70;78.80;;;;;;5056784;28;20186;-90
2023/05/04 01:20:56;;;;;;;4.80;4.40;;;11.70;79.00;;;;;;5055108;28;20249;-89
2023/05/04 01:23:22;;;;;;;4.97;4.60;;;11.90;77.00;;;;;;5040137;28;20184;-89
2023/05/04 01:26:05;;;;;;;5.03;4.63;;;12.00;75.70;;;;;;5063289;28;20179;-89
2023/05/04 01:28:40;;;;;;;5.10;4.70;;;12.20;74.70;;;;;;5059514;28;20165;-89
2023/05/04 01:31:08;;;;;;;4.93;4.40;;;12.30;74.40;;;;;;5059426;28;20227;-89
2023/05/04 01:33:36;;;;;;;4.83;4.33;;;12.50;73.00;;;;;;5059974;28;20185;-90
2023/05/04 01:36:03;;;;;;;6.37;4.70;;;12.60;71.90;;;;;;5060277;28;20276;-89
2023/05/04 01:38:28;;;;;;;5.67;4.83;;;12.50;71.20;;;;;;5067886;28;20190;-88
2023/05/04 01:40:54;;;;;;;5.10;4.70;;;12.50;72.40;;;;;;5085207;28;20259;-89
2023/05/04 01:43:20;;;;;;;6.70;5.17;;;12.40;72.40;;;;;;5086686;28;20180;-90
2023/05/04 01:45:45;;;;;;;5.00;4.50;;;12.20;73.20;;;;;;5068310;28;20373;-89
2023/05/04 01:48:11;;;;;;;6.57;4.80;;;12.20;74.40;;;;;;5072838;28;20207;-89
2023/05/04 01:50:37;;;;;;;5.43;4.83;;;12.00;74.70;;;;;;5079398;28;20182;-89
2023/05/04 01:53:03;;;;;;;5.53;5.03;;;12.00;75.00;;;;;;5088115;28;20202;-89
2023/05/04 01:55:28;;;;;;;5.30;4.80;;;12.00;74.20;;;;;;5080632;28;20174;-88
2023/05/04 01:57:54;;;;;;;4.93;4.53;;;12.00;75.30;;;;;;5079955;28;20233;-89
2023/05/04 02:00:20;;;;;;;4.90;4.50;;;11.90;76.20;;;;;;5060045;28;20193;-89
2023/05/04 02:02:45;;;;;;;5.70;4.70;;;11.80;76.70;;;;;;5059086;28;20256;-88
2023/05/04 02:05:11;;;;;;;5.20;4.70;;;11.60;77.60;;;;;;5057824;28;20260;-89
2023/05/04 02:07:37;;;;;;;6.37;5.10;;;11.60;77.50;;;;;;5055328;28;20217;-89
2023/05/04 02:10:02;;;;;;;5.10;4.60;;;11.60;77.30;;;;;;5055215;28;20233;-90
2023/05/04 02:12:28;;;;;;;6.67;5.17;;;11.70;76.80;;;;;;5054908;28;20187;-88
2023/05/04 02:14:54;;;;;;;4.83;4.43;;;11.80;76.80;;;;;;5054749;28;20662;-89
2023/05/04 02:17:19;;;;;;;5.30;4.80;;;11.80;75.60;;;;;;5036707;28;20210;-90
2023/05/04 02:19:45;;;;;;;5.53;5.03;;;11.90;75.30;;;;;;5038295;28;20878;-89
2023/05/04 02:22:11;;;;;;;5.77;5.13;;;11.90;74.70;;;;;;5056951;28;20312;-90
2023/05/04 02:24:39;;;;;;;5.20;4.70;;;12.00;74.50;;;;;;5058826;28;20192;-89
2023/05/04 02:27:05;;;;;;;5.27;4.87;;;12.10;74.00;;;;;;5057526;28;20252;-89
2023/05/04 02:29:30;;;;;;;5.53;4.87;;;12.10;73.30;;;;;;5071430;28;20869;-88
2023/05/04 02:31:56;;;;;;;5.80;5.20;;;12.20;73.10;;;;;;5081042;28;20593;-89
2023/05/04 02:34:22;;;;;;;5.67;5.03;;;12.10;73.40;;;;;;5081166;28;20344;-88
2023/05/04 02:36:48;;;;;;;5.37;4.97;;;12.00;74.20;;;;;;5082055;28;20200;-88
2023/05/04 02:39:13;;;;;;;6.00;4.87;;;11.80;74.70;;;;;;5083641;28;20281;-89
2023/05/04 02:41:39;;;;;;;5.63;5.13;;;11.70;75.70;;;;;;5077696;28;20293;-89
2023/05/04 02:44:04;;;;;;;5.30;4.80;;;11.70;75.60;;;;;;5065160;28;20296;-89
2023/05/04 02:46:31;;;;;;;5.10;4.60;;;11.70;76.10;;;;;;5038477;28;20200;-89
2023/05/04 02:48:57;;;;;;;5.20;4.80;;;11.70;76.00;;;;;;5038838;28;20177;-88
2023/05/04 02:51:22;;;;;;;6.00;5.50;;;11.70;75.40;;;;;;5038520;28;20635;-88
2023/05/04 02:53:48;;;;;;;6.20;5.23;;;11.70;75.80;;;;;;5037748;28;20191;-89
2023/05/04 02:56:14;;;;;;;6.37;5.77;;;11.60;76.20;;;;;;5046709;28;20222;-88
2023/05/04 02:58:39;;;;;;;5.93;5.17;;;11.50;76.70;;;;;;5054519;28;20835;-89
2023/05/04 03:01:05;;;;;;;6.33;5.43;;;11.50;76.80;;;;;;5053926;28;20266;-90
2023/05/04 03:03:30;;;;;;;5.87;5.37;;;11.50;76.80;;;;;;5053180;28;20678;-88
2023/05/04 03:05:56;;;;;;;5.77;5.27;;;11.50;76.70;;;;;;5051850;28;20234;-89
2023/05/04 03:08:22;;;;;;;6.33;5.73;;;11.40;77.00;;;;;;5052840;28;20183;-90
2023/05/04 03:10:48;;;;;;;5.97;5.40;;;11.40;77.00;;;;;;5033982;28;20188;-88
2023/05/04 03:13:13;;;;;;;6.23;5.63;;;11.40;76.80;;;;;;5052304;28;20191;-90
2023/05/04 03:15:39;;;;;;;5.70;5.07;;;11.40;76.90;;;;;;5053139;28;20703;-90
2023/05/04 03:18:05;;;;;;;6.10;5.50;;;11.40;77.10;;;;;;5055340;28;20752;-89
2023/05/04 03:20:31;;;;;;;5.93;5.23;;;11.40;76.90;;;;;;5055921;28;20179;-88
2023/05/04 03:22:56;;;;;;;6.30;5.80;;;11.30;77.50;;;;;;5056920;28;20207;-90
2023/05/04 03:25:22;;;;;;;6.37;5.73;;;11.30;77.70;;;;;;5057327;28;20515;-91
2023/05/04 03:27:48;;;;;;;7.00;6.30;;;11.30;77.90;;;;;;5057126;28;20203;-90
2023/05/04 03:30:14;;;;;;;8.37;6.83;;;11.30;77.70;;;;;;5057200;28;20181;-90
2023/05/04 03:32:39;;;;;;;6.50;5.90;;;11.20;77.80;;;;;;5056876;28;20183;-89
2023/05/04 03:35:05;;;;;;;7.63;6.53;;;11.20;77.80;;;;;;5056829;28;20217;-89
2023/05/04 03:37:31;;;;;;;8.43;6.53;;;11.20;78.00;;;;;;5060846;28;20206;-89
2023/05/04 03:39:56;;;;;;;6.30;5.70;;;11.20;78.20;;;;;;5053537;28;20188;-89
2023/05/04 03:42:22;;;;;;;7.33;5.70;;;11.20;77.70;;;;;;5055896;28;20229;-87
2023/05/04 03:44:47;;;;;;;6.40;5.80;;;11.20;77.30;;;;;;5037326;28;20499;-88
2023/05/04 03:47:13;;;;;;;6.70;6.20;;;11.20;77.30;;;;;;5055825;28;20203;-88
2023/05/04 03:49:39;;;;;;;6.53;5.77;;;11.10;78.20;;;;;;5056340;28;20229;-89
2023/05/04 03:52:05;;;;;;;7.50;6.70;;;11.20;78.20;;;;;;5042034;28;20200;-92
2023/05/04 03:54:31;;;;;;;6.60;6.07;;;11.20;77.70;;;;;;5056499;28;20261;-89
2023/05/04 03:56:57;;;;;;;7.10;6.40;;;11.20;77.80;;;;;;5037766;28;20362;-89
2023/05/04 03:59:22;;;;;;;8.00;6.77;;;11.10;78.20;;;;;;5053371;28;20193;-89
2023/05/04 04:01:48;;;;;;;7.10;6.33;;;11.00;78.50;;;;;;5052152;28;20270;-89
2023/05/04 04:04:14;;;;;;;7.40;6.70;;;11.00;78.70;;;;;;5052663;28;20196;-90
2023/05/04 04:06:40;;;;;;;7.20;6.50;;;10.90;79.20;;;;;;5069578;28;20202;-88
2023/05/04 04:09:06;;;;;;;6.83;6.30;;;10.80;79.90;;;;;;5056509;28;20204;-89
2023/05/04 04:11:31;;;;;;;7.13;6.43;;;10.80;80.00;;;;;;5053841;28;20882;-88
2023/05/04 04:13:57;;;;;;;6.90;6.30;;;10.70;80.90;;;;;;5054864;28;20277;-89
2023/05/04 04:16:23;;;;;;;8.10;7.30;;;10.60;81.40;;;;;;5056680;28;20306;-89
2023/05/04 04:18:49;;;;;;;7.80;7.00;;;10.60;81.70;;;;;;5056631;28;20362;-88
2023/05/04 04:21:15;;;;;;;7.90;7.20;;;10.70;81.50;;;;;;5054590;28;20214;-88
2023/05/04 04:23:40;;;;;;;6.73;6.13;;;10.70;80.70;;;;;;5055107;28;20220;-88
2023/05/04 04:26:06;;;;;;;7.40;6.80;;;10.80;80.60;;;;;;5055172;28;20180;-87
2023/05/04 04:28:32;;;;;;;7.80;6.93;;;10.90;80.40;;;;;;5054128;28;20788;-88
2023/05/04 04:30:58;;;;;;;7.60;6.93;;;10.90;80.20;;;;;;5052502;28;20173;-87
2023/05/04 04:33:24;;;;;;;7.70;6.60;;;11.00;79.80;;;;;;5052764;28;20186;-89
2023/05/04 04:35:50;;;;;;;8.17;7.30;;;11.10;79.40;;;;;;5052519;28;20175;-87
2023/05/04 04:38:16;;;;;;;8.40;7.60;;;11.00;79.20;;;;;;5052353;28;20233;-88
2023/05/04 04:40:42;;;;;;;9.63;7.30;;;11.00;80.10;;;;;;5051760;28;20174;-88
2023/05/04 04:43:08;;;;;;;7.27;6.57;;;10.90;80.60;;;;;;5053388;28;20213;-88
2023/05/04 04:45:34;;;;;;;7.47;6.77;;;10.90;81.40;;;;;;5039986;28;20296;-88
2023/05/04 04:48:00;;;;;;;8.07;7.37;;;10.90;81.20;;;;;;5038250;28;20220;-87
2023/05/04 04:50:26;;;;;;;8.60;7.70;;;10.90;81.20;;;;;;5058313;28;20188;-88
2023/05/04 04:52:51;;;;;;;8.53;7.73;;;10.90;81.20;;;;;;5040275;28;20195;-87
2023/05/04 04:55:17;;;;;;;7.77;7.07;;;10.90;81.50;;;;;;5056580;28;20188;-88
2023/05/04 04:57:43;;;;;;;8.20;7.50;;;11.00;81.80;;;;;;5054752;28;20211;-87
2023/05/04 05:00:09;;;;;;;7.83;7.10;;;10.90;81.80;;;;;;5055755;28;20656;-88
2023/05/04 05:02:35;;;;;;;9.13;7.73;;;10.90;81.80;;;;;;5056615;28;20230;-87
2023/05/04 05:05:01;;;;;;;9.23;7.87;;;10.90;82.00;;;;;;5057297;28;20208;-89
2023/05/04 05:07:26;;;;;;;8.47;7.67;;;11.00;82.10;;;;;;5074153;28;20225;-89
2023/05/04 05:09:52;;;;;;;8.20;7.50;;;11.10;81.90;;;;;;5077758;28;20244;-88
2023/05/04 05:12:18;;;;;;;8.37;7.57;;;11.10;82.00;;;;;;5078244;28;20178;-88
2023/05/04 05:14:46;;;;;;;9.60;8.70;;;11.10;82.30;;;;;;5076552;28;20662;-87
2023/05/04 05:17:11;;;;;;;9.50;8.57;;;11.10;82.20;;;;;;5072947;28;20204;-88
2023/05/04 05:19:37;;;;;;;9.40;8.40;;;11.10;82.00;;;;;;5056200;28;20172;-89
2023/05/04 05:22:03;;;;;;;10.57;9.57;;;11.20;81.50;;;;;;5055861;28;20882;-86
2023/05/04 05:24:29;;;;;;;9.90;8.90;;;11.20;81.50;;;;;;5068393;28;20278;-86
2023/05/04 05:26:55;;;;;;;10.30;9.40;;;11.30;81.20;;;;;;5059337;28;20200;-89
2023/05/04 05:29:21;;;;;;;11.40;10.40;;;11.40;81.10;;;;;;5057348;28;20187;-88
2023/05/04 05:31:46;;;;;;;10.73;9.63;;;11.40;80.90;;;;;;5057307;28;20192;-89
2023/05/04 05:34:12;;;;;;;11.87;10.33;;;11.50;80.50;;;;;;5057775;28;20784;-89
2023/05/04 05:36:38;;;;;;;11.97;10.73;;;11.60;80.80;;;;;;5054262;28;20273;-88
2023/05/04 05:39:04;;;;;;;13.00;11.70;;;11.70;81.00;;;;;;5057602;28;20181;-89
2023/05/04 05:41:29;;;;;;;11.43;10.27;;;11.70;80.70;;;;;;5038988;28;20207;-90
2023/05/04 05:43:55;;;;;;;11.60;10.50;;;11.80;80.60;;;;;;5057626;28;20205;-88
2023/05/04 05:46:21;;;;;;;10.03;9.10;;;11.90;80.10;;;;;;5052698;28;20589;-88
2023/05/04 05:48:47;;;;;;;11.13;9.83;;;12.00;79.60;;;;;;5058789;28;20175;-88
2023/05/04 05:51:13;;;;;;;10.83;9.93;;;12.00;79.40;;;;;;5069953;28;20216;-88
2023/05/04 05:53:38;;;;;;;10.87;9.93;;;12.20;78.80;;;;;;5074887;28;20186;-86
2023/05/04 05:56:04;;;;;;;10.97;9.87;;;12.20;78.50;;;;;;5074737;28;20181;-87
2023/05/04 05:58:30;;;;;;;15.00;10.73;;;12.30;78.40;;;;;;5072856;28;20189;-89
2023/05/04 06:00:56;;;;;;;10.90;9.90;;;12.40;77.90;;;;;;5073206;28;20179;-88
2023/05/04 06:03:22;;;;;;;10.60;9.70;;;12.50;77.30;;;;;;5070893;28;20179;-87
2023/05/04 06:05:47;;;;;;;13.63;10.03;;;12.50;76.30;;;;;;5051653;28;20176;-87
2023/05/04 06:08:13;;;;;;;11.20;10.27;;;12.60;76.20;;;;;;5061027;28;20203;-87
2023/05/04 06:10:39;;;;;;;12.67;10.33;;;12.60;76.00;;;;;;5071033;28;20548;-86
2023/05/04 06:13:05;;;;;;;10.63;9.53;;;12.70;76.80;;;;;;5059477;28;20180;-87
2023/05/04 06:15:31;;;;;;;12.00;10.73;;;12.90;76.20;;;;;;5039178;28;20175;-88
2023/05/04 06:17:56;;;;;;;10.90;9.80;;;13.10;74.40;;;;;;5056382;28;20270;-86
2023/05/04 06:20:22;;;;;;;11.80;10.50;;;13.10;73.90;;;;;;5057682;28;20184;-85
2023/05/04 06:22:48;;;;;;;13.83;10.87;;;13.30;73.80;;;;;;5056956;28;20231;-87
2023/05/04 06:25:13;;;;;;;13.40;10.20;;;13.30;73.10;;;;;;5036695;28;20193;-88
2023/05/04 06:27:39;;;;;;;11.20;10.20;;;13.30;74.10;;;;;;5055159;28;20192;-86
2023/05/04 06:30:05;;;;;;;11.43;10.53;;;13.40;73.10;;;;;;5055100;28;20748;-88
2023/05/04 06:32:31;;;;;;;13.20;10.90;;;13.60;72.70;;;;;;5036932;28;20188;-87
2023/05/04 06:34:58;;;;;;;12.17;10.77;;;13.70;73.00;;;;;;5036875;28;20733;-86
2023/05/04 06:37:24;;;;;;;12.07;11.07;;;13.70;72.10;;;;;;5054429;28;20200;-87
2023/05/04 06:39:49;;;;;;;11.53;10.40;;;13.80;71.70;;;;;;5054041;28;20173;-88
2023/05/04 06:42:15;;;;;;;11.53;10.33;;;13.90;71.50;;;;;;5048021;28;20253;-87
2023/05/04 06:44:41;;;;;;;11.67;10.57;;;13.90;70.90;;;;;;5041893;28;20213;-88
2023/05/04 06:47:07;;;;;;;11.53;10.43;;;14.10;71.00;;;;;;5031708;28;20199;-86
2023/05/04 06:49:35;;;;;;;12.40;10.57;;;14.20;70.40;;;;;;5030028;28;20179;-87
2023/05/04 06:52:01;;;;;;;11.07;10.13;;;14.20;69.40;;;;;;5028700;28;20337;-86
2023/05/04 06:54:27;;;;;;;11.97;10.87;;;14.20;69.60;;;;;;5028856;28;20264;-86
2023/05/04 06:56:53;;;;;;;12.00;10.90;;;14.40;69.40;;;;;;5029266;28;20201;-87
2023/05/04 06:59:19;;;;;;;12.13;11.10;;;14.40;69.80;;;;;;5028987;28;20235;-87
2023/05/04 07:01:48;;;;;;;11.03;10.10;;;14.40;69.40;;;;;;5033325;28;20414;-86
2023/05/04 07:04:21;;;;;;;11.33;10.37;;;14.50;69.40;;;;;;5033777;28;20177;-87
2023/05/04 07:06:51;;;;;;;11.30;10.30;;;14.60;69.00;;;;;;5032926;28;20267;-87
2023/05/04 07:09:18;;;;;;;11.23;10.30;;;14.80;68.90;;;;;;5032754;28;20184;-86
2023/05/04 07:11:44;;;;;;;11.57;10.57;;;14.90;67.60;;;;;;5038571;28;20188;-87
2023/05/04 07:14:10;;;;;;;11.37;10.27;;;15.00;67.10;;;;;;5053732;28;20199;-86
2023/05/04 07:16:36;;;;;;;11.77;10.73;;;15.10;67.90;;;;;;5052149;28;20210;-85
2023/05/04 07:19:03;;;;;;;12.10;11.10;;;15.30;66.90;;;;;;5055014;28;20184;-87
2023/05/04 07:21:29;;;;;;;11.70;10.57;;;15.40;66.00;;;;;;5055602;28;20295;-87
2023/05/04 07:23:55;;;;;;;11.87;10.80;;;15.50;65.30;;;;;;5042409;28;20192;-89
2023/05/04 07:26:21;;;;;;;10.90;9.90;;;15.60;65.70;;;;;;5072578;28;20594;-86
2023/05/04 07:28:47;;;;;;;12.40;11.20;;;15.60;66.00;;;;;;5071837;28;20262;-88
2023/05/04 07:31:13;;;;;;;11.80;10.63;;;15.70;64.40;;;;;;5058283;28;20717;-87
2023/05/04 07:33:39;;;;;;;14.43;11.53;;;15.80;64.20;;;;;;5052049;28;20177;-85
2023/05/04 07:36:05;;;;;;;11.87;10.60;;;15.90;64.40;;;;;;5051430;28;20306;-88
2023/05/04 07:38:32;;;;;;;11.57;10.40;;;16.10;63.90;;;;;;5055621;28;20187;-88
2023/05/04 07:40:57;;;;;;;11.00;10.00;;;16.10;63.10;;;;;;5049091;28;20286;-86
2023/05/04 07:43:23;;;;;;;11.90;10.80;;;16.20;63.40;;;;;;5036938;28;20271;-86
2023/05/04 07:45:51;;;;;;;11.43;10.30;;;16.20;63.80;;;;;;5028984;28;20299;-89
2023/05/04 07:48:17;;;;;;;12.03;10.77;;;16.30;63.30;;;;;;5065754;28;20237;-87
2023/05/04 07:50:42;;;;;;;10.97;9.97;;;16.40;62.10;;;;;;5037455;28;20305;-87
2023/05/04 07:53:08;;;;;;;11.57;10.37;;;16.50;61.80;;;;;;5053447;28;20189;-87
2023/05/04 07:55:34;;;;;;;11.57;10.37;;;16.60;61.70;;;;;;5054810;28;20229;-87
2023/05/04 07:58:00;;;;;;;11.20;10.20;;;16.70;61.30;;;;;;5055568;28;20207;-88
2023/05/04 08:00:26;;;;;;;13.13;10.03;;;16.60;61.60;;;;;;5055141;28;20244;-87
2023/05/04 08:02:52;;;;;;;12.00;10.90;;;16.90;60.80;;;;;;5054784;28;20891;-87
2023/05/04 08:05:17;;;;;;;10.40;9.37;;;17.00;60.10;;;;;;5054052;28;20250;-88
2023/05/04 08:07:43;;;;;;;10.50;9.70;;;17.10;60.00;;;;;;5055871;28;20625;-88
2023/05/04 08:10:09;;;;;;;10.57;9.77;;;17.20;59.50;;;;;;5054273;28;20196;-86
2023/05/04 08:12:35;;;;;;;11.47;10.47;;;17.40;58.40;;;;;;5037142;28;20182;-88
2023/05/04 08:15:01;;;;;;;15.07;10.30;;;17.50;58.00;;;;;;5057383;28;20181;-88
2023/05/04 08:17:27;;;;;;;10.00;9.10;;;17.60;58.60;;;;;;5059209;28;20246;-89
2023/05/04 08:19:53;;;;;;;10.60;9.50;;;17.70;57.70;;;;;;5070843;28;20545;-89
2023/05/04 08:22:18;;;;;;;10.43;9.40;;;17.80;57.70;;;;;;5080895;28;20230;-87
2023/05/04 08:24:46;;;;;;;10.20;9.07;;;17.90;57.60;;;;;;5080644;28;20175;-90
2023/05/04 08:27:13;;;;;;;11.05;9.88;;;18.00;57.00;;;;;;5080813;28;20196;-87
2023/05/04 08:29:40;;;;;;;10.00;9.17;;;18.20;55.80;;;;;;5078328;28;20172;-87
2023/05/04 08:32:07;;;;;;;11.53;9.77;;;18.20;55.60;;;;;;5078093;28;20278;-87
2023/05/04 08:34:32;;;;;;;9.80;9.07;;;18.20;55.70;;;;;;5062481;28;20193;-88
2023/05/04 08:36:58;;;;;;;14.17;10.00;;;18.20;55.40;;;;;;5058744;28;20204;-87
2023/05/04 08:39:24;;;;;;;13.57;9.32;;;18.40;55.60;;;;;;5058234;28;20187;-88
2023/05/04 08:41:50;;;;;;;10.77;9.67;;;18.40;54.60;;;;;;5039055;28;20209;-88
2023/05/04 08:44:17;;;;;;;9.75;8.95;;;18.50;54.40;;;;;;5052778;28;20183;-88
2023/05/04 08:46:44;;;;;;;9.70;8.82;;;18.70;54.20;;;;;;5035794;28;20754;-88
2023/05/04 08:49:10;;;;;;;10.10;9.13;;;18.90;53.90;;;;;;5036634;28;20222;-88
2023/05/04 08:51:36;;;;;;;10.10;8.80;;;19.10;52.60;;;;;;5037676;28;20478;-88
2023/05/04 08:54:08;;;;;;;9.95;8.98;;;19.20;52.30;;;;;;5036268;28;20176;-88
2023/05/04 08:56:35;;;;;;;9.23;8.52;;;19.30;51.90;;;;;;5038474;28;20767;-89
2023/05/04 08:59:02;;;;;;;9.70;8.88;;;19.50;52.00;;;;;;5038460;28;20181;-87
2023/05/04 09:01:30;;;;;;;9.38;8.63;;;19.50;51.40;;;;;;5040072;28;20192;-88
2023/05/04 09:03:57;;;;;;;10.75;8.98;;;19.60;51.10;;;;;;5041435;28;20165;-88
2023/05/04 09:06:23;;;;;;;8.38;7.68;;;19.60;50.90;;;;;;5040894;28;20197;-89
2023/05/04 09:08:49;;;;;;;10.18;8.48;;;19.80;51.30;;;;;;5040190;28;20173;-88
2023/05/04 09:11:14;;;;;;;8.30;7.50;;;19.90;50.20;;;;;;5040219;28;20227;-88
2023/05/04 09:13:41;;;;;;;9.35;8.52;;;20.10;49.50;;;;;;5040454;28;20173;-89
2023/05/04 09:16:07;;;;;;;8.55;7.90;;;20.20;48.20;;;;;;5039970;28;20177;-87
2023/05/04 09:18:42;;;;;;;10.73;8.55;;;20.20;48.90;;;;;;5039814;28;20269;-88
2023/05/04 09:21:08;;;;;;;9.85;8.98;;;20.40;47.70;;;;;;5056511;28;20219;-87
2023/05/04 09:23:48;;;;;;;8.70;7.88;;;20.40;47.30;;;;;;5058914;28;20212;-89
2023/05/04 09:26:14;;;;;;;8.50;7.70;;;20.70;47.90;;;;;;5059099;28;20696;-88
2023/05/04 09:28:40;;;;;;;8.82;7.97;;;20.90;48.00;;;;;;5058144;28;20257;-87
2023/05/04 09:31:07;;;;;;;9.00;8.25;;;21.10;46.30;;;;;;5049121;28;20195;-88
2023/05/04 09:33:33;;;;;;;8.88;7.97;;;21.20;45.70;;;;;;5058195;28;20193;-88
2023/05/04 09:36:13;;;;;;;9.50;8.80;;;21.30;45.70;;;;;;5059233;28;20169;-88
2023/05/04 09:38:39;;;;;;;9.32;8.52;;;20.90;46.30;;;;;;5059318;28;20518;-87
2023/05/04 09:41:05;;;;;;;8.00;7.30;;;20.90;46.20;;;;;;5057936;28;20181;-88
2023/05/04 09:43:41;;;;;;;13.43;8.90;;;21.30;45.50;;;;;;5055603;28;20184;-87
2023/05/04 09:46:15;;;;;;;9.05;8.25;;;21.40;44.50;;;;;;5037826;28;20179;-88
2023/05/04 09:48:53;;;;;;;8.95;8.15;;;21.40;45.00;;;;;;5045453;28;20179;-87
2023/05/04 09:51:22;;;;;;;8.80;8.00;;;21.50;44.10;;;;;;5054424;28;20163;-87
2023/05/04 09:53:50;;;;;;;8.75;7.93;;;21.60;44.80;;;;;;5056598;28;20189;-89
2023/05/04 09:56:19;;;;;;;9.38;8.65;;;21.80;43.40;;;;;;5058491;28;20207;-88
2023/05/04 09:58:45;;;;;;;8.50;7.70;;;22.20;42.50;;;;;;5046528;28;20183;-87
2023/05/04 10:01:11;;;;;;;8.48;7.80;;;22.40;42.20;;;;;;5056808;28;20271;-85
2023/05/04 10:03:37;;;;;;;9.05;8.45;;;22.80;41.60;;;;;;5062627;28;20199;-89
2023/05/04 10:06:07;;;;;;;9.48;8.50;;;23.10;40.90;;;;;;5076703;28;20265;-89
2023/05/04 10:08:34;;;;;;;9.88;9.02;;;23.20;40.00;;;;;;5075501;28;20174;-87
2023/05/04 10:10:59;;;;;;;8.27;7.60;;;23.30;38.50;;;;;;5076364;28;20187;-87
2023/05/04 10:13:26;;;;;;;9.70;8.90;;;23.30;38.80;;;;;;5071704;28;20270;-89
2023/05/04 10:16:04;;;;;;;8.77;8.18;;;23.50;38.90;;;;;;5044176;28;20180;-87
2023/05/04 10:18:43;;;;;;;9.73;8.93;;;23.60;38.20;;;;;;5057079;28;20168;-88
2023/05/04 10:21:26;;;;;;;9.63;8.82;;;23.60;38.00;;;;;;5040971;28;20687;-88
2023/05/04 10:24:01;;;;;;;8.40;7.80;;;23.70;37.80;;;;;;5058725;28;20198;-88
2023/05/04 10:26:58;;;;;;;8.75;8.15;;;23.80;38.60;;;;;;5057043;28;20320;-88
2023/05/04 10:29:27;;;;;;;9.18;8.55;;;24.30;37.30;;;;;;5047343;28;20188;-89
2023/05/04 10:31:53;;;;;;;8.82;8.23;;;24.40;35.30;;;;;;5040083;28;20191;-88
2023/05/04 10:34:33;;;;;;;9.52;8.82;;;24.40;35.70;;;;;;5058230;28;20180;-89
2023/05/04 10:37:01;;;;;;;9.98;8.85;;;24.50;35.90;;;;;;5055762;28;20215;-89
2023/05/04 10:39:31;;;;;;;9.05;8.30;;;24.40;36.50;;;;;;5038445;28;20207;-88
2023/05/04 10:41:58;;;;;;;8.85;8.07;;;24.50;35.80;;;;;;5038765;28;20669;-87
2023/05/04 10:44:24;;;;;;;9.00;8.30;;;24.70;35.40;;;;;;5048492;28;20184;-88
2023/05/04 10:46:57;;;;;;;9.00;8.48;;;24.60;35.30;;;;;;5034897;28;20200;-89
2023/05/04 10:49:23;;;;;;;9.85;9.25;;;24.70;35.80;;;;;;5036247;28;20212;-88
2023/05/04 10:51:50;;;;;;;9.38;8.57;;;24.50;36.00;;;;;;5018689;28;20660;-87
2023/05/04 10:54:18;;;;;;;10.13;9.10;;;24.70;36.10;;;;;;5018637;28;20203;-89
2023/05/04 10:56:43;;;;;;;10.48;9.68;;;24.70;35.70;;;;;;5036492;28;20197;-87
2023/05/04 10:59:09;;;;;;;8.95;8.35;;;25.00;34.80;;;;;;5037079;28;20173;-87
2023/05/04 11:01:46;;;;;;;8.63;8.02;;;25.30;34.70;;;;;;5036959;28;20227;-89
2023/05/04 11:04:21;;;;;;;10.15;9.45;;;25.60;33.90;;;;;;5037009;28;20172;-88
2023/05/04 11:06:57;;;;;;;9.00;8.40;;;25.50;33.40;;;;;;5018049;28;20239;-89
2023/05/04 11:09:23;;;;;;;9.68;9.00;;;25.80;33.40;;;;;;5035460;28;20191;-88
2023/05/04 11:11:49;;;;;;;9.35;8.85;;;26.10;32.40;;;;;;5036525;28;20207;-88
2023/05/04 11:14:26;;;;;;;9.18;8.57;;;26.10;31.30;;;;;;5041046;28;20189;-88
2023/05/04 11:17:08;;;;;;;9.80;9.30;;;26.10;30.70;;;;;;5057966;28;20199;-88
2023/05/04 11:19:34;;;;;;;10.48;9.70;;;26.50;30.70;;;;;;5043495;28;20179;-88
2023/05/04 11:22:03;;;;;;;10.85;10.23;;;26.70;31.50;;;;;;5060920;28;20655;-89
2023/05/04 11:24:42;;;;;;;12.57;11.88;;;26.80;31.30;;;;;;5056680;28;20179;-87
2023/05/04 11:27:20;;;;;;;11.23;10.55;;;26.80;29.70;;;;;;5072594;28;20195;-88
2023/05/04 11:29:56;;;;;;;12.35;11.60;;;26.60;30.70;;;;;;5077373;28;20172;-88
2023/05/04 11:32:31;;;;;;;11.15;10.60;;;26.60;30.00;;;;;;5072176;28;20175;-89
2023/05/04 11:34:57;;;;;;;11.95;11.25;;;26.70;30.30;;;;;;5018771;28;20180;-90
2023/05/04 11:37:23;;;;;;;12.55;11.90;;;27.00;30.00;;;;;;5025130;28;20708;-87
2023/05/04 11:39:48;;;;;;;11.70;10.95;;;26.80;29.60;;;;;;5066554;28;20235;-88
2023/05/04 11:42:15;;;;;;;13.82;12.77;;;26.80;30.00;;;;;;5037335;28;20218;-89
2023/05/04 11:44:41;;;;;;;13.25;12.55;;;27.20;29.20;;;;;;5055662;28;20176;-87
2023/05/04 11:47:08;;;;;;;12.93;12.13;;;27.10;29.40;;;;;;5055421;28;20199;-88
2023/05/04 11:49:34;;;;;;;13.00;12.30;;;27.40;29.60;;;;;;5056185;28;20180;-89
2023/05/04 11:52:09;;;;;;;13.20;12.20;;;27.60;29.50;;;;;;5054905;28;20187;-88
2023/05/04 11:54:36;;;;;;;12.48;11.77;;;27.60;28.90;;;;;;5055101;28;20172;-88
2023/05/04 11:57:02;;;;;;;14.68;13.35;;;27.80;29.70;;;;;;5055957;28;20213;-88
2023/05/04 11:59:29;;;;;;;13.93;13.13;;;27.90;28.80;;;;;;5055761;28;20206;-89
2023/05/04 12:01:55;;;;;;;14.20;13.32;;;28.00;28.80;;;;;;5038021;28;20227;-88
2023/05/04 12:04:21;;;;;;;11.98;11.30;;;27.90;28.20;;;;;;5056485;28;20171;-88
2023/05/04 12:06:48;;;;;;;11.93;11.23;;;27.90;29.90;;;;;;5054985;28;20212;-88
2023/05/04 12:09:15;;;;;;;13.63;12.77;;;28.30;29.80;;;;;;5055402;28;20424;-88
2023/05/04 12:11:40;;;;;;;14.95;14.13;;;28.70;28.20;;;;;;5054842;28;20180;-87
2023/05/04 12:14:15;;;;;;;16.13;15.38;;;29.10;28.00;;;;;;5053565;28;20198;-88
2023/05/04 12:16:51;;;;;;;15.80;14.73;;;28.90;27.10;;;;;;5055667;28;20235;-90
2023/05/04 12:19:17;;;;;;;15.48;14.77;;;29.00;27.20;;;;;;5049415;28;20253;-87
2023/05/04 12:21:53;;;;;;;15.85;15.15;;;29.30;27.70;;;;;;5054288;28;20622;-88
2023/05/04 12:24:23;;;;;;;16.98;15.80;;;29.60;26.40;;;;;;5037778;28;20197;-89
2023/05/04 12:26:49;;;;;;;17.08;16.25;;;30.10;27.00;;;;;;5056197;28;20254;-87
2023/05/04 12:29:15;;;;;;;17.20;15.60;;;29.70;26.20;;;;;;5054886;28;20172;-88
2023/05/04 12:31:40;;;;;;;16.80;15.57;;;29.40;26.70;;;;;;5054482;28;20209;-88
2023/05/04 12:34:06;;;;;;;16.15;15.35;;;29.20;27.30;;;;;;5036341;28;20221;-88
2023/05/04 12:36:33;;;;;;;14.45;13.80;;;28.80;26.80;;;;;;5053555;28;20200;-87
2023/05/04 12:38:58;;;;;;;15.77;14.73;;;29.00;28.10;;;;;;5053481;28;20442;-88
2023/05/04 12:41:24;;;;;;;15.38;14.27;;;28.80;27.00;;;;;;5059814;28;20208;-89